Time;durP1;ratioP1;P1;durP2;ratioP2;P2;SDS_P1;SDS_P2;PMS_P1;PMS_P2;Temp;Humidity;BMP_temperature;BMP_pressure;BME280_temperature;BME280_humidity;BME280_pressure;Samples;Min_cycle;Max_cycle;Signal;HPM_P1;HPM_P2
2021/12/23 00:01:31;;;;;;;45.13;24.93;;;-5.90;43.90;;;;;;5053723;28;20552;-75
2021/12/23 00:03:57;;;;;;;46.07;25.33;;;-5.90;36.10;;;;;;5053485;28;20647;-76
2021/12/23 00:06:23;;;;;;;46.13;24.90;;;-5.80;50.20;;;;;;5053166;28;20213;-76
2021/12/23 00:08:48;;;;;;;48.33;25.47;;;-5.80;56.30;;;;;;5052728;28;20198;-75
2021/12/23 00:11:14;;;;;;;49.43;24.73;;;-5.90;32.20;;;;;;5053212;28;20647;-75
2021/12/23 00:13:48;;;;;;;48.70;25.30;;;-5.90;36.70;;;;;;5053153;28;20653;-75
2021/12/23 00:16:18;;;;;;;46.00;25.63;;;-5.90;30.30;;;;;;5053318;28;20179;-75
2021/12/23 00:18:50;;;;;;;45.87;23.37;;;-6.00;74.70;;;;;;5052329;28;20253;-75
2021/12/23 00:24:01;;;;;;;49.63;25.00;;;-5.90;30.80;;;;;;5053687;28;20266;-75
2021/12/23 00:26:27;;;;;;;43.13;24.90;;;-5.80;47.70;;;;;;5052777;28;20522;-76
2021/12/23 00:28:53;;;;;;;41.07;24.03;;;-5.80;46.50;;;;;;5052441;28;20200;-76
2021/12/23 00:31:19;;;;;;;47.87;25.33;;;-5.70;92.90;;;;;;5052893;28;20201;-76
2021/12/23 00:33:45;;;;;;;45.43;23.83;;;-6.00;17.60;;;;;;5053016;28;20253;-76
2021/12/23 00:36:12;;;;;;;48.07;24.00;;;-6.30;50.00;;;;;;5052896;28;20187;-75
2021/12/23 00:38:53;;;;;;;45.40;25.17;;;-6.00;99.90;;;;;;5051895;28;20214;-76
2021/12/23 00:41:19;;;;;;;44.47;23.30;;;-5.80;99.90;;;;;;5052753;28;20183;-76
2021/12/23 00:43:46;;;;;;;47.83;24.90;;;-5.40;99.90;;;;;;5052749;28;20317;-75
2021/12/23 00:46:11;;;;;;;46.13;24.80;;;-5.60;99.90;;;;;;5052620;28;20172;-76
2021/12/23 00:48:39;;;;;;;45.37;23.63;;;-5.50;99.90;;;;;;5052342;28;20202;-76
2021/12/23 00:51:05;;;;;;;43.93;23.70;;;-5.40;99.90;;;;;;5052469;28;20183;-76
2021/12/23 00:53:37;;;;;;;46.00;25.50;;;-5.40;99.90;;;;;;5052522;28;20535;-76
2021/12/23 00:56:04;;;;;;;44.40;24.30;;;-5.40;99.90;;;;;;5052782;28;20194;-76
2021/12/23 00:58:30;;;;;;;48.57;24.50;;;-5.50;99.90;;;;;;5052058;28;20563;-76
2021/12/23 01:00:58;;;;;;;43.47;22.77;;;-5.60;78.20;;;;;;5052479;28;20217;-76
2021/12/23 01:03:23;;;;;;;45.13;22.90;;;-5.50;58.30;;;;;;5052184;28;20180;-75
2021/12/23 01:05:49;;;;;;;42.07;23.27;;;-5.50;35.60;;;;;;5052080;28;20193;-76
2021/12/23 01:08:19;;;;;;;44.40;23.30;;;-5.50;1.00;;;;;;5051657;28;20199;-76
2021/12/23 01:10:44;;;;;;;39.90;22.37;;;-5.50;17.20;;;;;;5051819;28;20199;-75
2021/12/23 01:13:13;;;;;;;45.77;23.27;;;-6.00;1.00;;;;;;5052169;28;20171;-75
2021/12/23 01:15:58;;;;;;;44.07;24.47;;;-6.10;1.00;;;;;;5052246;28;20233;-77
2021/12/23 01:18:25;;;;;;;41.23;23.47;;;-6.10;1.00;;;;;;5051425;28;20219;-76
2021/12/23 01:20:52;;;;;;;41.57;23.60;;;-6.00;8.40;;;;;;5052056;28;20175;-76
2021/12/23 01:23:21;;;;;;;45.77;24.73;;;-6.00;9.80;;;;;;5052382;28;20264;-76
2021/12/23 01:25:47;;;;;;;47.97;25.00;;;-6.00;4.70;;;;;;5052040;28;20224;-75
2021/12/23 01:28:13;;;;;;;47.20;25.00;;;-6.00;18.80;;;;;;5051233;28;20214;-75
2021/12/23 01:30:39;;;;;;;47.43;25.73;;;-6.00;28.90;;;;;;5051656;28;20659;-74
2021/12/23 01:33:06;;;;;;;50.70;27.67;;;-5.90;45.40;;;;;;5051633;28;20190;-75
2021/12/23 01:35:32;;;;;;;42.20;24.73;;;-6.00;44.30;;;;;;5051480;28;20175;-76
2021/12/23 01:37:59;;;;;;;49.63;25.97;;;-6.10;56.80;;;;;;5050863;28;20341;-76
2021/12/23 01:40:25;;;;;;;48.57;25.97;;;-6.00;54.10;;;;;;5051701;28;20250;-76
2021/12/23 01:42:50;;;;;;;49.67;26.93;;;-6.10;38.40;;;;;;5051827;28;20585;-76
2021/12/23 01:45:19;;;;;;;54.60;26.73;;;-6.00;45.20;;;;;;5051460;28;20175;-75
2021/12/23 01:47:45;;;;;;;46.23;25.87;;;-6.20;87.50;;;;;;5051397;28;20199;-75
2021/12/23 01:50:13;;;;;;;49.90;27.17;;;-6.00;99.90;;;;;;5051434;28;20308;-75
2021/12/23 01:52:39;;;;;;;50.83;26.50;;;-6.10;63.80;;;;;;5051500;28;20205;-76
2021/12/23 01:55:06;;;;;;;51.87;27.73;;;-6.20;95.20;;;;;;5051584;28;20551;-74
2021/12/23 01:57:33;;;;;;;48.40;26.10;;;-6.10;99.90;;;;;;5050817;28;20274;-75
2021/12/23 02:00:00;;;;;;;52.20;27.37;;;-5.90;99.90;;;;;;5051328;28;20175;-75
2021/12/23 02:02:26;;;;;;;52.27;26.00;;;-5.80;99.90;;;;;;5051198;28;20282;-75
2021/12/23 02:04:52;;;;;;;54.57;25.80;;;-5.60;99.90;;;;;;5051646;28;20178;-74
2021/12/23 02:07:19;;;;;;;46.67;24.27;;;-5.40;99.90;;;;;;5050734;28;20183;-75
2021/12/23 02:09:44;;;;;;;46.67;25.50;;;-5.30;93.30;;;;;;5051471;28;20185;-75
2021/12/23 02:12:10;;;;;;;53.00;26.97;;;-5.30;25.20;;;;;;5051211;28;20261;-75
2021/12/23 02:14:35;;;;;;;51.13;25.70;;;-5.30;15.70;;;;;;5051020;28;20182;-74
2021/12/23 02:17:01;;;;;;;47.27;24.53;;;-5.40;1.00;;;;;;5050879;28;20220;-75
2021/12/23 02:19:27;;;;;;;44.07;25.67;;;-5.50;9.90;;;;;;5051095;28;20211;-75
2021/12/23 02:21:53;;;;;;;40.83;24.00;;;-5.60;1.00;;;;;;5054323;28;20183;-75
2021/12/23 02:24:19;;;;;;;47.33;25.90;;;-5.60;1.60;;;;;;5055201;28;20228;-76
2021/12/23 02:26:45;;;;;;;49.60;26.87;;;-5.50;1.00;;;;;;5054962;28;20279;-76
2021/12/23 02:29:11;;;;;;;46.30;25.63;;;-5.60;1.00;;;;;;5054576;28;20206;-76
2021/12/23 02:31:37;;;;;;;50.60;26.47;;;-5.60;1.00;;;;;;5054906;28;20187;-76
2021/12/23 02:34:03;;;;;;;51.27;26.63;;;-5.70;1.00;;;;;;5055113;28;20203;-75
2021/12/23 02:36:30;;;;;;;51.17;27.07;;;-5.70;1.00;;;;;;5054967;28;20650;-76
2021/12/23 02:38:57;;;;;;;51.60;26.80;;;-5.70;1.00;;;;;;5054468;28;20245;-76
2021/12/23 02:41:22;;;;;;;48.90;26.53;;;-5.60;1.00;;;;;;5054866;28;20334;-76
2021/12/23 02:43:48;;;;;;;48.27;25.23;;;-5.60;1.00;;;;;;5054625;28;20203;-75
2021/12/23 02:46:13;;;;;;;46.33;26.77;;;-5.60;1.00;;;;;;5054834;28;20178;-76
2021/12/23 02:48:39;;;;;;;46.60;24.87;;;-5.60;1.00;;;;;;5054243;28;20253;-75
2021/12/23 02:51:09;;;;;;;44.03;25.40;;;-5.60;1.00;;;;;;5054685;28;20175;-75
2021/12/23 02:53:35;;;;;;;48.93;25.90;;;-5.70;1.00;;;;;;5054557;28;20171;-75
2021/12/23 02:56:04;;;;;;;49.70;26.67;;;-5.90;1.00;;;;;;5054572;28;20175;-75
2021/12/23 02:58:29;;;;;;;46.40;26.20;;;-5.90;5.90;;;;;;5053766;28;20221;-74
2021/12/23 03:00:57;;;;;;;47.57;25.63;;;-5.70;21.20;;;;;;5054745;28;20250;-76
2021/12/23 03:03:22;;;;;;;50.93;26.30;;;-5.80;1.00;;;;;;5056172;28;20183;-76
2021/12/23 03:05:50;;;;;;;45.03;25.03;;;-5.80;1.00;;;;;;5054418;28;20343;-75
2021/12/23 03:08:26;;;;;;;50.67;26.10;;;-5.70;1.00;;;;;;5053802;28;20740;-75
2021/12/23 03:10:51;;;;;;;47.50;25.70;;;-5.60;1.00;;;;;;5054194;28;20646;-75
2021/12/23 03:13:17;;;;;;;50.87;26.07;;;-5.60;1.00;;;;;;5054399;28;20655;-76
2021/12/23 03:15:42;;;;;;;46.40;25.67;;;-5.50;1.00;;;;;;5054207;28;20175;-76
2021/12/23 03:18:08;;;;;;;47.03;25.83;;;-5.50;1.00;;;;;;5053810;28;20210;-76
2021/12/23 03:20:33;;;;;;;45.77;25.03;;;-5.40;1.00;;;;;;5054072;28;20194;-75
2021/12/23 03:22:59;;;;;;;52.67;26.23;;;-5.50;1.00;;;;;;5058456;28;20167;-75
2021/12/23 03:25:24;;;;;;;47.77;25.73;;;-5.50;1.00;;;;;;5079289;28;20198;-76
2021/12/23 03:27:50;;;;;;;50.80;25.33;;;-5.30;1.00;;;;;;5079074;28;20225;-76
2021/12/23 03:30:15;;;;;;;46.73;26.23;;;-5.40;1.00;;;;;;5077909;28;20187;-76
2021/12/23 03:32:41;;;;;;;49.80;27.10;;;-5.70;1.00;;;;;;5083492;22;20227;-78
2021/12/23 03:35:07;;;;;;;48.23;26.90;;;-5.80;1.00;;;;;;5059644;28;20175;-78
2021/12/23 03:37:32;;;;;;;45.17;26.30;;;-5.90;4.80;;;;;;5058496;28;20193;-78
2021/12/23 03:39:58;;;;;;;52.07;27.80;;;-5.80;34.40;;;;;;5058605;28;20544;-79
2021/12/23 03:42:23;;;;;;;53.40;26.40;;;-5.70;16.80;;;;;;5058624;28;20221;-79
2021/12/23 03:44:49;;;;;;;46.00;25.13;;;-5.80;12.00;;;;;;5058833;28;20278;-78
2021/12/23 03:47:15;;;;;;;49.83;26.47;;;-5.70;58.00;;;;;;5056707;28;20202;-78
2021/12/23 03:49:40;;;;;;;55.00;26.73;;;-5.70;87.60;;;;;;5054542;28;20584;-77
2021/12/23 03:52:06;;;;;;;49.60;26.53;;;-5.70;79.00;;;;;;5036217;28;20183;-77
2021/12/23 03:54:31;;;;;;;54.50;27.03;;;-5.80;99.90;;;;;;5054054;28;20667;-77
2021/12/23 03:56:57;;;;;;;50.23;26.20;;;-5.80;99.90;;;;;;5053945;28;20183;-78
2021/12/23 03:59:22;;;;;;;55.47;28.10;;;-5.80;99.90;;;;;;5054158;28;20211;-77
2021/12/23 04:01:48;;;;;;;49.90;26.70;;;-6.00;99.90;;;;;;5054405;28;20268;-78
2021/12/23 04:04:14;;;;;;;53.97;26.57;;;-6.10;99.90;;;;;;5054247;28;20214;-77
2021/12/23 04:06:39;;;;;;;54.77;25.97;;;-6.00;99.90;;;;;;5053826;28;20262;-77
2021/12/23 04:09:05;;;;;;;48.93;26.27;;;-5.90;99.90;;;;;;5053395;28;20265;-77
2021/12/23 04:11:30;;;;;;;50.63;25.17;;;-5.70;99.90;;;;;;5053660;28;20178;-77
2021/12/23 04:13:56;;;;;;;50.00;24.60;;;-5.60;99.90;;;;;;5053907;28;20363;-77
2021/12/23 04:16:22;;;;;;;46.83;23.33;;;-5.40;99.90;;;;;;5053677;28;20217;-78
2021/12/23 04:18:50;;;;;;;43.30;23.00;;;-5.30;92.60;;;;;;5053153;28;20241;-76
2021/12/23 04:21:16;;;;;;;45.60;23.80;;;-5.10;47.40;;;;;;5053412;28;20718;-76
2021/12/23 04:23:42;;;;;;;46.67;23.77;;;-5.00;1.00;;;;;;5053328;28;20182;-77
2021/12/23 04:26:09;;;;;;;45.83;23.23;;;-5.00;1.00;;;;;;5053590;28;20660;-77
2021/12/23 04:28:45;;;;;;;45.00;25.20;;;-4.90;1.00;;;;;;5052872;28;20249;-77
2021/12/23 04:31:11;;;;;;;60.40;34.47;;;-5.20;1.00;;;;;;5052976;28;20549;-77
2021/12/23 04:33:37;;;;;;;67.13;40.50;;;-5.20;1.00;;;;;;5052755;28;20207;-76
2021/12/23 04:36:02;;;;;;;53.67;28.77;;;-5.10;1.00;;;;;;5053039;28;20743;-77
2021/12/23 04:38:28;;;;;;;52.93;29.07;;;-5.40;1.00;;;;;;5052503;28;20219;-77
2021/12/23 04:40:53;;;;;;;69.67;43.83;;;-5.40;1.00;;;;;;5053162;28;20175;-77
2021/12/23 04:43:19;;;;;;;64.93;38.80;;;-5.40;1.00;;;;;;5052801;28;20643;-77
2021/12/23 04:45:44;;;;;;;48.50;27.20;;;-5.40;1.00;;;;;;5052899;28;20175;-77
2021/12/23 04:48:10;;;;;;;46.87;25.93;;;-5.50;1.00;;;;;;5052369;28;20195;-77
2021/12/23 04:50:35;;;;;;;50.30;26.27;;;-5.70;12.50;;;;;;5052961;28;20233;-77
2021/12/23 04:53:01;;;;;;;48.47;27.27;;;-5.70;58.10;;;;;;5053451;28;20171;-77
2021/12/23 04:55:28;;;;;;;48.07;26.53;;;-5.60;95.20;;;;;;5053243;28;20175;-78
2021/12/23 04:57:54;;;;;;;47.60;25.10;;;-5.40;74.50;;;;;;5034601;28;20234;-77
2021/12/23 05:00:21;;;;;;;46.03;24.93;;;-5.50;30.60;;;;;;5053091;28;20210;-77
2021/12/23 05:02:47;;;;;;;46.37;24.10;;;-5.40;40.70;;;;;;5052944;28;20393;-77
2021/12/23 05:05:13;;;;;;;44.83;23.37;;;-5.30;21.50;;;;;;5052984;28;20545;-77
2021/12/23 05:07:40;;;;;;;47.13;24.80;;;-5.20;1.00;;;;;;5052472;28;20214;-77
2021/12/23 05:10:10;;;;;;;49.27;24.90;;;-5.10;1.00;;;;;;5052982;28;20195;-78
2021/12/23 05:12:42;;;;;;;44.30;24.37;;;-5.30;1.00;;;;;;5053117;28;20206;-78
2021/12/23 05:15:13;;;;;;;48.10;25.23;;;-5.30;3.00;;;;;;5053063;28;20592;-78
2021/12/23 05:17:39;;;;;;;45.47;24.33;;;-5.50;1.00;;;;;;5053095;28;20281;-78
2021/12/23 05:20:07;;;;;;;47.73;25.50;;;-5.70;24.60;;;;;;5053428;28;20332;-78
2021/12/23 05:22:33;;;;;;;42.53;23.80;;;-5.60;76.10;;;;;;5053149;28;20185;-78
2021/12/23 05:24:59;;;;;;;44.77;24.20;;;-5.50;66.80;;;;;;5053249;28;20262;-79
2021/12/23 05:27:24;;;;;;;44.30;24.33;;;-5.40;60.30;;;;;;5052171;28;20206;-78
2021/12/23 05:29:50;;;;;;;52.40;32.03;;;-5.30;14.60;;;;;;5054513;28;20171;-78
2021/12/23 05:32:15;;;;;;;70.47;50.30;;;-5.50;1.00;;;;;;5057325;28;20202;-78
2021/12/23 05:34:41;;;;;;;58.33;38.90;;;-5.50;19.20;;;;;;5053256;28;20198;-78
2021/12/23 05:37:07;;;;;;;44.90;24.97;;;-5.50;8.00;;;;;;5057336;28;20205;-79
2021/12/23 05:39:32;;;;;;;48.50;25.23;;;-4.70;23.00;;;;;;5057852;28;20245;-79
2021/12/23 05:41:58;;;;;;;50.53;26.00;;;-5.60;22.40;;;;;;5052589;28;20782;-78
2021/12/23 05:44:23;;;;;;;44.53;24.37;;;-5.60;31.00;;;;;;5053347;28;20183;-78
2021/12/23 05:46:49;;;;;;;48.10;24.80;;;-5.60;45.60;;;;;;5053325;28;20178;-79
2021/12/23 05:49:15;;;;;;;49.17;25.03;;;-5.60;27.40;;;;;;5052813;28;20248;-78
2021/12/23 05:51:40;;;;;;;44.87;23.87;;;-5.60;11.60;;;;;;5053061;28;20186;-78
2021/12/23 05:54:06;;;;;;;44.73;23.93;;;-5.70;16.40;;;;;;5052379;28;20179;-78
2021/12/23 05:56:32;;;;;;;44.77;23.70;;;-5.60;94.40;;;;;;5052398;28;20175;-79
2021/12/23 05:58:57;;;;;;;42.50;24.33;;;-5.50;40.50;;;;;;5052914;28;20246;-79
2021/12/23 06:01:23;;;;;;;46.30;23.17;;;-5.60;1.00;;;;;;5052620;28;20178;-79
2021/12/23 06:03:49;;;;;;;46.80;23.47;;;-5.60;1.00;;;;;;5052871;28;20175;-79
2021/12/23 06:06:15;;;;;;;46.00;24.33;;;-5.70;44.10;;;;;;5053310;28;20179;-79
2021/12/23 06:08:41;;;;;;;47.87;24.17;;;-5.70;99.90;;;;;;5052189;28;20252;-78
2021/12/23 06:11:08;;;;;;;48.57;24.03;;;-5.60;94.00;;;;;;5053394;28;20190;-79
2021/12/23 06:13:33;;;;;;;44.03;24.07;;;-5.50;46.80;;;;;;5053489;28;20243;-78
2021/12/23 06:15:59;;;;;;;50.43;25.00;;;-5.70;33.10;;;;;;5053539;28;20682;-77
2021/12/23 06:18:24;;;;;;;46.13;23.70;;;-5.80;37.50;;;;;;5051369;28;20218;-77
2021/12/23 06:20:50;;;;;;;49.47;24.60;;;-5.80;26.60;;;;;;5052561;28;20182;-78
2021/12/23 06:23:15;;;;;;;52.97;25.83;;;-5.80;56.60;;;;;;5052206;28;20183;-78
2021/12/23 06:25:41;;;;;;;46.20;24.83;;;-5.80;39.40;;;;;;5052428;28;20241;-76
2021/12/23 06:28:07;;;;;;;49.17;24.47;;;-5.70;33.10;;;;;;5052046;28;20199;-75
2021/12/23 06:30:33;;;;;;;46.10;24.43;;;-5.80;57.80;;;;;;5053085;28;20194;-74
2021/12/23 06:32:59;;;;;;;46.50;24.50;;;-5.70;44.20;;;;;;5057935;28;20191;-76
2021/12/23 06:35:27;;;;;;;43.27;23.70;;;-5.50;88.90;;;;;;5051728;28;20175;-76
2021/12/23 06:37:53;;;;;;;49.57;24.07;;;-5.40;44.80;;;;;;5056121;28;20198;-77
2021/12/23 06:40:20;;;;;;;48.17;31.63;;;-5.50;1.00;;;;;;5071173;28;20455;-79
2021/12/23 06:42:45;;;;;;;46.10;26.27;;;-5.50;1.00;;;;;;5072326;28;20501;-78
2021/12/23 06:45:12;;;;;;;44.33;25.20;;;-5.60;1.00;;;;;;5072827;28;20179;-80
2021/12/23 06:47:38;;;;;;;44.10;24.23;;;-5.70;18.10;;;;;;5070789;28;20237;-79
2021/12/23 06:50:06;;;;;;;44.30;23.93;;;-5.90;65.10;;;;;;5070932;28;20209;-80
2021/12/23 06:52:32;;;;;;;48.93;25.97;;;-5.60;62.60;;;;;;5070245;28;20191;-77
2021/12/23 06:54:57;;;;;;;47.40;24.93;;;-5.50;46.30;;;;;;5057977;28;20596;-78
2021/12/23 06:57:25;;;;;;;47.13;24.40;;;-5.60;19.30;;;;;;5054983;28;20207;-79
2021/12/23 06:59:51;;;;;;;44.80;25.30;;;-5.80;94.10;;;;;;5061395;28;20210;-78
2021/12/23 07:02:17;;;;;;;50.87;25.33;;;-5.70;99.90;;;;;;5055861;28;20674;-80
2021/12/23 07:04:44;;;;;;;52.13;25.87;;;-5.70;99.90;;;;;;5055906;28;20355;-78
2021/12/23 07:07:12;;;;;;;46.30;25.90;;;-5.70;99.90;;;;;;5054638;28;20175;-78
2021/12/23 07:09:42;;;;;;;50.37;24.87;;;-5.90;99.90;;;;;;5057107;28;20209;-79
2021/12/23 07:12:10;;;;;;;49.67;25.40;;;-5.60;99.90;;;;;;5055754;28;20182;-80
2021/12/23 07:14:37;;;;;;;48.00;25.93;;;-5.50;99.80;;;;;;5054931;28;20182;-78
2021/12/23 07:17:04;;;;;;;49.90;26.37;;;-5.60;75.40;;;;;;5055084;28;20216;-78
2021/12/23 07:19:29;;;;;;;46.77;23.27;;;-5.50;97.60;;;;;;5056290;28;20214;-79
2021/12/23 07:21:55;;;;;;;52.00;25.40;;;-5.20;65.40;;;;;;5055945;28;20186;-78
2021/12/23 07:24:21;;;;;;;51.10;24.80;;;-5.30;1.00;;;;;;5055008;28;20181;-78
2021/12/23 07:26:47;;;;;;;47.13;25.07;;;-5.60;1.00;;;;;;5055237;28;20182;-79
2021/12/23 07:29:13;;;;;;;52.77;26.17;;;-5.40;35.00;;;;;;5054763;28;20195;-77
2021/12/23 07:31:39;;;;;;;48.40;26.10;;;-5.20;65.60;;;;;;5054871;28;20579;-77
2021/12/23 07:34:05;;;;;;;46.83;25.93;;;-5.10;33.80;;;;;;5054823;28;20275;-78
2021/12/23 07:36:31;;;;;;;46.13;24.90;;;-5.00;1.00;;;;;;5054775;28;20588;-80
2021/12/23 07:38:57;;;;;;;45.10;24.17;;;-5.00;1.00;;;;;;5054192;28;20636;-79
2021/12/23 07:41:25;;;;;;;46.20;23.97;;;-4.90;1.00;;;;;;5055033;28;20180;-79
2021/12/23 07:43:59;;;;;;;45.67;24.00;;;-4.60;1.00;;;;;;5054029;28;20202;-78
2021/12/23 07:46:27;;;;;;;45.43;24.27;;;-4.50;1.00;;;;;;5055007;28;20571;-80
2021/12/23 07:48:54;;;;;;;42.13;23.17;;;-4.50;1.00;;;;;;5054084;28;20199;-79
2021/12/23 07:51:19;;;;;;;42.07;23.47;;;-4.50;1.00;;;;;;5054410;28;20176;-78
2021/12/23 07:53:45;;;;;;;44.03;22.40;;;-4.60;1.00;;;;;;5054305;28;20187;-79
2021/12/23 07:56:11;;;;;;;46.80;22.97;;;-4.40;1.00;;;;;;5054526;28;20202;-78
2021/12/23 07:58:36;;;;;;;45.30;23.03;;;-4.30;1.00;;;;;;5054060;28;20218;-78
2021/12/23 08:01:02;;;;;;;42.50;24.03;;;-4.70;1.00;;;;;;5054536;28;20186;-78
2021/12/23 08:03:27;;;;;;;53.37;30.30;;;-4.50;1.00;;;;;;5054783;28;20578;-77
2021/12/23 08:05:53;;;;;;;49.43;27.37;;;-4.40;1.00;;;;;;5055602;28;20194;-77
2021/12/23 08:08:19;;;;;;;49.13;26.83;;;-4.30;1.00;;;;;;5057480;28;20223;-78
2021/12/23 08:10:45;;;;;;;46.90;24.90;;;-4.20;1.00;;;;;;5058151;28;20179;-77
2021/12/23 08:13:11;;;;;;;46.80;24.67;;;-4.20;1.00;;;;;;5055105;28;20175;-79
2021/12/23 08:15:36;;;;;;;44.50;24.07;;;-4.50;1.00;;;;;;5054947;28;20198;-78
2021/12/23 08:18:03;;;;;;;48.13;25.20;;;-4.50;1.00;;;;;;5054028;28;20568;-77
2021/12/23 08:20:28;;;;;;;48.23;24.50;;;-4.50;1.00;;;;;;5054093;28;20175;-77
2021/12/23 08:22:55;;;;;;;48.83;24.77;;;-4.20;1.00;;;;;;5053981;28;20179;-78
2021/12/23 08:25:22;;;;;;;47.50;24.53;;;-4.20;1.00;;;;;;5053938;28;20202;-78
2021/12/23 08:27:48;;;;;;;48.57;24.33;;;-4.20;1.00;;;;;;5053281;28;20261;-79
2021/12/23 08:30:17;;;;;;;47.87;24.87;;;-3.90;1.00;;;;;;5053871;28;20185;-78
2021/12/23 08:32:42;;;;;;;43.10;24.23;;;-3.00;1.00;;;;;;5053540;28;20191;-78
2021/12/23 08:35:09;;;;;;;42.17;24.00;;;-2.60;99.90;;;;;;5053875;28;20543;-78
2021/12/23 08:37:38;;;;;;;41.67;23.90;;;-2.10;1.00;;;;;;5053851;28;20233;-78
2021/12/23 08:40:06;;;;;;;40.67;23.50;;;-2.00;1.00;;;;;;5053593;28;20253;-79
2021/12/23 08:42:31;;;;;;;38.43;22.33;;;-1.70;1.00;;;;;;5053602;28;20282;-77
2021/12/23 08:44:57;;;;;;;37.43;22.60;;;-2.00;26.20;;;;;;5054141;28;20171;-77
2021/12/23 08:47:23;;;;;;;44.73;23.70;;;-2.40;99.90;;;;;;5053355;28;20191;-78
2021/12/23 08:49:49;;;;;;;37.93;22.80;;;-2.80;77.30;;;;;;5053188;28;20167;-78
2021/12/23 08:52:14;;;;;;;43.60;24.93;;;-3.00;1.00;;;;;;5052699;28;20186;-78
2021/12/23 08:54:42;;;;;;;45.97;25.80;;;-2.80;1.00;;;;;;5034733;28;20265;-78
2021/12/23 08:57:07;;;;;;;43.73;25.57;;;-2.90;99.90;;;;;;5052149;28;20716;-77
2021/12/23 08:59:33;;;;;;;45.10;27.10;;;-3.00;1.00;;;;;;5052450;28;20302;-78
2021/12/23 09:01:59;;;;;;;47.63;26.93;;;-2.90;1.00;;;;;;5052861;28;20592;-77
2021/12/23 09:04:24;;;;;;;46.73;25.37;;;-3.00;1.00;;;;;;5052800;28;20680;-78
2021/12/23 09:06:50;;;;;;;42.03;23.90;;;-2.60;1.00;;;;;;5052425;28;20197;-77
2021/12/23 09:09:17;;;;;;;42.17;24.27;;;-2.50;99.90;;;;;;5052027;28;20182;-78
2021/12/23 09:11:42;;;;;;;45.17;23.63;;;-2.40;99.90;;;;;;5052656;28;20198;-77
2021/12/23 09:14:08;;;;;;;40.43;23.77;;;-2.50;99.90;;;;;;5052581;28;20636;-77
2021/12/23 09:16:34;;;;;;;44.80;23.57;;;-2.70;1.00;;;;;;5052967;28;20616;-77
2021/12/23 09:19:00;;;;;;;41.83;23.93;;;-2.60;1.00;;;;;;5052067;28;20321;-77
2021/12/23 09:21:25;;;;;;;45.13;24.70;;;-2.60;1.00;;;;;;5052755;28;20186;-77
2021/12/23 09:23:51;;;;;;;42.87;24.20;;;-2.60;1.00;;;;;;5052073;28;20528;-77
2021/12/23 09:26:16;;;;;;;42.33;24.83;;;-2.20;1.00;;;;;;5053495;28;20659;-76
2021/12/23 09:34:02;;;;;;;47.93;25.30;;;-2.70;1.00;;;;;;5010902;28;20262;-76
2021/12/23 09:36:28;;;;;;;43.77;24.83;;;-2.60;1.00;;;;;;5012609;28;20180;-75
2021/12/23 09:38:54;;;;;;;46.07;25.73;;;-2.60;1.00;;;;;;5011964;28;20637;-74
2021/12/23 09:41:21;;;;;;;47.23;26.70;;;-2.30;1.00;;;;;;5012389;28;20176;-77
2021/12/23 09:43:48;;;;;;;46.10;25.07;;;-2.30;99.90;;;;;;5012335;28;20185;-76
2021/12/23 09:46:17;;;;;;;43.40;24.50;;;-2.10;99.90;;;;;;5012251;28;20630;-75
2021/12/23 09:48:45;;;;;;;41.47;23.40;;;-2.20;1.00;;;;;;5011764;28;20230;-74
2021/12/23 09:51:13;;;;;;;45.57;23.53;;;-2.30;1.00;;;;;;5012398;28;20266;-75
2021/12/23 09:53:42;;;;;;;41.50;23.20;;;-2.30;1.00;;;;;;5012040;28;20180;-75
2021/12/23 09:56:07;;;;;;;46.07;26.27;;;-2.30;1.00;;;;;;5011730;28;20179;-75
2021/12/23 09:58:34;;;;;;;52.13;27.37;;;-2.20;1.00;;;;;;5011359;28;20220;-75
2021/12/23 10:01:00;;;;;;;44.07;24.83;;;-2.30;1.00;;;;;;5011920;28;20177;-74
2021/12/23 10:03:28;;;;;;;47.47;25.53;;;-2.40;1.00;;;;;;5012000;28;20525;-77
2021/12/23 10:05:55;;;;;;;50.23;26.43;;;-2.40;1.00;;;;;;5012119;28;20604;-77
2021/12/23 10:08:22;;;;;;;47.27;25.50;;;-2.40;1.00;;;;;;5011299;28;20224;-76
2021/12/23 10:11:03;;;;;;;44.73;25.53;;;-2.30;1.00;;;;;;5011769;28;20184;-77
2021/12/23 10:38:37;;;;;;;44.67;25.87;;;-1.70;1.00;;;;;;5010834;28;20213;-80
2021/12/23 10:41:12;;;;;;;50.23;25.50;;;-1.10;1.00;;;;;;5011607;28;20183;-77
2021/12/23 10:43:45;;;;;;;43.97;24.13;;;-0.90;99.90;;;;;;5015731;28;20208;-78
2021/12/23 10:46:39;;;;;;;47.23;25.83;;;-0.70;1.00;;;;;;5015574;28;20179;-77
2021/12/23 10:58:01;;;;;;;48.20;25.43;;;-0.50;1.00;;;;;;5015249;28;20318;-77
2021/12/23 11:00:33;;;;;;;50.60;26.30;;;-0.40;1.00;;;;;;5015214;28;20202;-77
2021/12/23 11:03:33;;;;;;;40.23;23.80;;;-0.50;1.00;;;;;;5014825;28;20220;-78
2021/12/23 11:41:32;;;;;;;41.30;23.30;;;0.50;1.00;;;;;;5014012;28;20184;-75
2021/12/23 11:44:00;;;;;;;47.13;24.60;;;0.50;1.00;;;;;;5014310;28;20612;-75
2021/12/23 11:46:56;;;;;;;43.30;25.07;;;0.60;99.90;;;;;;5013935;28;20195;-77
2021/12/23 11:49:22;;;;;;;46.73;24.77;;;0.70;99.90;;;;;;5012621;28;20196;-77
2021/12/23 11:54:20;;;;;;;38.57;23.87;;;0.90;1.00;;;;;;5013519;28;20173;-78
2021/12/23 11:56:50;;;;;;;46.77;25.27;;;0.80;1.00;;;;;;5019164;28;20176;-79
2021/12/23 11:59:17;;;;;;;44.50;23.37;;;0.80;1.00;;;;;;5013598;28;20212;-80
2021/12/23 12:01:52;;;;;;;39.93;23.40;;;0.80;1.00;;;;;;5029248;28;20172;-75
2021/12/23 12:04:26;;;;;;;40.47;22.83;;;1.00;14.00;;;;;;5033862;28;20179;-79
2021/12/23 12:06:53;;;;;;;36.77;22.63;;;1.30;1.00;;;;;;5033315;28;20172;-79
2021/12/23 12:09:23;;;;;;;46.27;24.70;;;1.30;1.00;;;;;;5033297;28;20234;-79
2021/12/23 12:12:10;;;;;;;39.10;23.93;;;1.30;1.00;;;;;;5021750;28;20270;-77
2021/12/23 12:14:39;;;;;;;46.47;26.03;;;1.20;1.00;;;;;;4993882;28;20193;-80
2021/12/23 12:17:23;;;;;;;43.40;25.47;;;1.20;55.00;;;;;;4993640;28;20184;-77
2021/12/23 12:19:56;;;;;;;46.77;26.27;;;1.30;55.30;;;;;;4993543;28;20713;-77
2021/12/23 12:22:44;;;;;;;45.43;26.53;;;1.60;99.90;;;;;;4993876;28;20177;-78
2021/12/23 12:25:09;;;;;;;42.43;25.10;;;1.70;1.00;;;;;;4993727;28;20173;-77
2021/12/23 12:27:35;;;;;;;44.43;25.33;;;1.50;1.00;;;;;;4993143;28;20315;-77
2021/12/23 12:30:10;;;;;;;47.67;25.87;;;1.50;48.20;;;;;;4993781;28;20169;-77
2021/12/23 12:32:36;;;;;;;47.80;24.87;;;1.70;1.00;;;;;;4993592;28;20282;-78
2021/12/23 12:35:13;;;;;;;43.00;23.47;;;1.90;1.00;;;;;;4993517;28;20652;-78
2021/12/23 12:37:50;;;;;;;37.17;21.77;;;2.00;1.00;;;;;;4992668;28;20568;-80
2021/12/23 12:40:17;;;;;;;40.07;23.07;;;2.00;99.90;;;;;;4993192;28;20634;-75
2021/12/23 12:42:46;;;;;;;40.43;23.27;;;2.20;1.00;;;;;;4993275;28;20180;-76
2021/12/23 12:45:23;;;;;;;42.20;23.93;;;2.40;1.00;;;;;;4993383;28;20197;-78
2021/12/23 12:47:55;;;;;;;36.73;23.50;;;2.20;1.00;;;;;;4992845;28;20580;-78
2021/12/23 12:50:26;;;;;;;44.77;24.57;;;2.30;99.90;;;;;;4993392;28;20305;-77
2021/12/23 12:52:55;;;;;;;44.20;22.97;;;2.20;99.90;;;;;;4993072;28;20541;-80
2021/12/23 12:55:24;;;;;;;40.73;24.40;;;2.10;11.00;;;;;;4993062;28;20551;-78
2021/12/23 12:58:00;;;;;;;39.43;24.67;;;2.20;99.90;;;;;;4992548;28;20280;-78
2021/12/23 13:00:36;;;;;;;46.17;24.07;;;2.20;59.80;;;;;;4993076;28;20188;-78
2021/12/23 13:03:07;;;;;;;41.47;24.20;;;2.40;99.90;;;;;;4992951;28;20528;-76
2021/12/23 13:05:38;;;;;;;41.30;24.97;;;2.30;99.90;;;;;;4991665;28;20645;-75
2021/12/23 13:08:24;;;;;;;39.87;23.80;;;2.20;1.00;;;;;;4992497;28;20276;-80
2021/12/23 13:10:50;;;;;;;37.07;21.93;;;2.00;1.00;;;;;;4994186;28;20176;-78
2021/12/23 13:13:31;;;;;;;40.73;23.80;;;2.00;1.00;;;;;;4992912;28;20251;-78
2021/12/23 13:16:00;;;;;;;39.70;23.60;;;1.90;1.00;;;;;;5024017;28;20196;-78
2021/12/23 13:18:26;;;;;;;42.40;23.83;;;2.20;1.00;;;;;;4992139;28;20251;-78
2021/12/23 13:20:57;;;;;;;38.17;23.30;;;2.30;1.00;;;;;;4992382;28;20169;-78
2021/12/23 13:23:45;;;;;;;36.63;23.80;;;2.40;1.00;;;;;;4992308;28;20247;-78
2021/12/23 13:26:16;;;;;;;36.87;23.63;;;2.50;1.00;;;;;;4992315;28;20244;-78
2021/12/23 13:28:54;;;;;;;39.83;23.40;;;2.70;1.00;;;;;;4991798;28;20197;-78
2021/12/23 13:31:36;;;;;;;41.97;23.73;;;2.80;1.00;;;;;;4992149;28;20219;-76
2021/12/23 13:34:05;;;;;;;40.47;24.00;;;2.90;1.00;;;;;;4992087;28;20196;-79
2021/12/23 13:36:38;;;;;;;36.07;22.10;;;3.00;99.90;;;;;;4992288;28;20177;-78
2021/12/23 13:39:09;;;;;;;38.40;22.67;;;3.10;99.90;;;;;;4993707;28;20229;-77
2021/12/23 13:41:44;;;;;;;39.23;22.67;;;3.10;1.00;;;;;;4992148;28;20650;-79
2021/12/23 13:44:15;;;;;;;38.20;22.87;;;3.10;1.00;;;;;;4992034;28;20200;-78
2021/12/23 13:46:53;;;;;;;40.60;21.70;;;3.10;99.90;;;;;;4992128;28;20520;-77
2021/12/23 13:49:19;;;;;;;36.13;22.60;;;3.30;57.10;;;;;;4992011;28;20173;-76
2021/12/23 13:51:48;;;;;;;33.67;21.07;;;3.20;1.00;;;;;;4992119;28;20692;-77
2021/12/23 13:54:17;;;;;;;37.90;23.90;;;3.10;33.80;;;;;;4992317;28;20177;-78
2021/12/23 13:56:48;;;;;;;33.20;20.23;;;3.00;99.90;;;;;;4991180;28;20232;-76